Time;durP1;ratioP1;P1;durP2;ratioP2;P2;SDS_P1;SDS_P2;PMS_P1;PMS_P2;Temp;Humidity;BMP_temperature;BMP_pressure;BME280_temperature;BME280_humidity;BME280_pressure;Samples;Min_cycle;Max_cycle;Signal;HPM_P1;HPM_P2
2022/08/19 00:01:52;;;;;;;9.30;7.00;;;15.80;99.90;;;;;;4968873;28;20046;-68
2022/08/19 00:04:26;;;;;;;9.23;7.10;;;15.70;99.90;;;;;;4986186;28;20118;-68
2022/08/19 00:06:52;;;;;;;11.57;7.88;;;15.90;99.90;;;;;;4966134;28;20662;-68
2022/08/19 00:09:20;;;;;;;8.23;6.88;;;15.80;99.90;;;;;;4966928;28;20043;-67
2022/08/19 00:11:46;;;;;;;7.32;6.57;;;15.80;99.90;;;;;;4967975;28;20086;-68
2022/08/19 00:14:16;;;;;;;7.00;6.30;;;15.70;99.90;;;;;;4973904;28;20106;-67
2022/08/19 00:16:44;;;;;;;7.07;6.45;;;15.60;99.90;;;;;;4967193;28;20541;-68
2022/08/19 00:19:10;;;;;;;7.32;6.63;;;15.90;99.90;;;;;;4973855;28;20066;-68
2022/08/19 00:21:39;;;;;;;7.25;6.50;;;15.70;99.90;;;;;;4968337;28;20059;-67
2022/08/19 00:24:07;;;;;;;8.30;7.05;;;15.60;99.90;;;;;;4975267;28;20069;-68
2022/08/19 00:26:33;;;;;;;7.22;6.50;;;15.60;99.90;;;;;;4954292;28;20442;-68
2022/08/19 00:28:59;;;;;;;7.13;6.43;;;15.50;99.90;;;;;;4973229;28;20055;-67
2022/08/19 00:31:27;;;;;;;8.73;7.82;;;15.50;99.90;;;;;;4957714;28;20054;-68
2022/08/19 00:33:52;;;;;;;8.10;7.30;;;15.50;99.90;;;;;;4972370;28;20121;-68
2022/08/19 00:36:19;;;;;;;7.57;6.30;;;15.40;99.90;;;;;;4971871;28;20051;-68
2022/08/19 00:38:45;;;;;;;8.13;6.82;;;15.50;99.90;;;;;;4978628;28;20089;-68
2022/08/19 00:41:14;;;;;;;9.15;7.15;;;15.80;99.90;;;;;;4955598;28;20083;-67
2022/08/19 00:43:40;;;;;;;8.07;6.72;;;15.40;99.90;;;;;;4971359;28;20057;-68
2022/08/19 00:46:07;;;;;;;8.48;7.55;;;15.50;99.90;;;;;;4984901;28;20054;-68
2022/08/19 00:48:33;;;;;;;9.15;7.68;;;15.40;99.90;;;;;;4991081;28;20058;-68
2022/08/19 00:51:00;;;;;;;7.63;6.85;;;15.30;99.90;;;;;;4955322;29;20069;-68
2022/08/19 00:53:29;;;;;;;9.43;6.80;;;15.20;99.90;;;;;;4965353;28;20058;-68
2022/08/19 00:55:59;;;;;;;10.18;7.82;;;15.50;99.90;;;;;;4974729;28;20065;-68
2022/08/19 00:58:29;;;;;;;9.30;7.80;;;15.30;99.90;;;;;;4970630;28;20122;-68
2022/08/19 01:00:55;;;;;;;8.55;7.18;;;15.20;99.90;;;;;;4975007;28;20406;-68
2022/08/19 01:03:22;;;;;;;10.07;7.18;;;15.20;99.90;;;;;;4952807;28;20055;-68
2022/08/19 01:05:49;;;;;;;7.32;6.57;;;15.30;99.90;;;;;;4974117;28;20059;-68
2022/08/19 01:08:17;;;;;;;7.68;6.72;;;15.10;99.90;;;;;;4972159;28;20086;-68
2022/08/19 01:10:47;;;;;;;8.52;7.35;;;15.20;99.90;;;;;;4945568;28;20476;-68
2022/08/19 01:13:20;;;;;;;8.50;7.70;;;15.20;99.90;;;;;;4974700;28;20055;-68
2022/08/19 01:15:51;;;;;;;10.20;7.95;;;14.90;99.90;;;;;;4973220;28;20054;-68
2022/08/19 01:18:19;;;;;;;8.68;7.78;;;15.20;99.90;;;;;;4989907;28;20058;-68
2022/08/19 01:20:45;;;;;;;8.52;7.60;;;15.80;99.90;;;;;;4957271;28;20494;-68
2022/08/19 01:23:12;;;;;;;10.35;8.10;;;15.10;99.90;;;;;;4971423;28;20051;-68
2022/08/19 01:25:52;;;;;;;10.43;7.90;;;15.10;99.90;;;;;;4976098;28;20047;-68
2022/08/19 01:28:27;;;;;;;9.25;8.35;;;15.30;99.90;;;;;;4973937;28;20522;-68
2022/08/19 01:30:54;;;;;;;9.80;8.20;;;15.00;99.90;;;;;;4971493;28;20553;-68
2022/08/19 01:33:20;;;;;;;9.52;8.63;;;15.20;99.90;;;;;;4958194;28;20094;-68
2022/08/19 01:35:50;;;;;;;9.27;8.25;;;15.20;99.90;;;;;;4969812;28;20065;-68
2022/08/19 01:38:25;;;;;;;9.30;7.85;;;15.20;99.90;;;;;;4972471;28;20047;-68
2022/08/19 01:40:51;;;;;;;9.10;8.20;;;15.00;99.90;;;;;;4974943;28;20517;-68
2022/08/19 01:43:18;;;;;;;9.77;8.35;;;15.20;99.90;;;;;;4987892;28;20055;-68
2022/08/19 01:45:44;;;;;;;8.32;7.47;;;15.10;99.90;;;;;;4967608;28;20059;-68
2022/08/19 01:48:13;;;;;;;8.55;7.03;;;15.10;99.90;;;;;;4971671;28;20040;-67
2022/08/19 01:50:38;;;;;;;10.20;8.13;;;15.20;99.90;;;;;;4975064;28;20050;-67
2022/08/19 01:53:08;;;;;;;9.55;7.40;;;15.10;99.90;;;;;;4972008;28;20062;-68
2022/08/19 01:55:37;;;;;;;9.50;8.50;;;15.00;99.90;;;;;;4972865;28;20507;-68
2022/08/19 01:58:07;;;;;;;8.85;7.95;;;15.10;99.90;;;;;;4968615;28;20050;-68
2022/08/19 02:00:32;;;;;;;8.25;7.50;;;15.00;99.90;;;;;;4973595;28;20062;-68
2022/08/19 02:02:59;;;;;;;8.02;7.22;;;14.90;99.90;;;;;;4957259;28;20364;-67
2022/08/19 02:05:24;;;;;;;9.75;7.18;;;14.90;99.90;;;;;;4962456;28;20257;-67
2022/08/19 02:07:50;;;;;;;8.85;7.95;;;14.70;99.90;;;;;;4990430;28;20133;-68
2022/08/19 02:10:21;;;;;;;8.40;7.47;;;14.90;99.90;;;;;;4984831;28;20054;-68
2022/08/19 02:12:49;;;;;;;8.68;7.43;;;14.90;99.90;;;;;;4974911;28;20082;-68
2022/08/19 02:15:15;;;;;;;8.30;7.50;;;14.80;99.90;;;;;;4968557;28;20044;-68
2022/08/19 02:17:41;;;;;;;7.88;7.07;;;14.80;99.90;;;;;;4973206;28;20055;-68
2022/08/19 02:20:08;;;;;;;8.25;7.43;;;14.70;99.90;;;;;;4971175;28;20403;-68
2022/08/19 02:22:35;;;;;;;8.02;7.22;;;14.80;99.90;;;;;;4973090;28;20150;-68
2022/08/19 02:25:01;;;;;;;8.23;7.32;;;14.70;99.90;;;;;;4972094;28;20070;-67
2022/08/19 02:27:27;;;;;;;7.80;7.10;;;14.60;99.90;;;;;;4969945;28;20047;-67
2022/08/19 02:29:53;;;;;;;8.50;7.70;;;14.90;99.90;;;;;;4971112;28;20066;-68
2022/08/19 02:32:19;;;;;;;10.40;7.93;;;14.60;99.90;;;;;;4967921;28;20554;-68
2022/08/19 02:34:45;;;;;;;8.15;7.32;;;14.60;99.90;;;;;;4972653;28;20513;-68
2022/08/19 02:38:25;;;;;;;10.50;8.55;;;14.70;99.90;;;;;;4962735;28;20047;-68
2022/08/19 02:39:58;;;;;;;8.35;7.45;;;14.70;99.90;;;;;;4969695;28;20047;-68
2022/08/19 02:42:23;;;;;;;10.68;8.07;;;14.70;99.90;;;;;;4967379;28;20130;-68
2022/08/19 02:44:49;;;;;;;10.10;7.45;;;14.60;99.90;;;;;;4956499;28;20138;-67
2022/08/19 02:47:15;;;;;;;8.13;7.32;;;14.60;99.90;;;;;;4971267;28;20110;-68
2022/08/19 02:49:41;;;;;;;10.18;8.02;;;14.40;99.90;;;;;;4972979;28;20518;-67
2022/08/19 02:52:07;;;;;;;9.45;8.38;;;14.60;99.90;;;;;;4967927;28;20085;-67
2022/08/19 02:54:32;;;;;;;9.60;8.57;;;14.60;99.90;;;;;;4956067;28;20483;-67
2022/08/19 02:56:58;;;;;;;9.95;8.95;;;14.50;99.90;;;;;;4966760;28;20150;-67
2022/08/19 02:59:26;;;;;;;9.35;8.45;;;15.00;99.90;;;;;;4971837;28;20552;-68
2022/08/19 03:01:52;;;;;;;10.50;8.93;;;14.60;99.90;;;;;;4959202;28;20508;-68
2022/08/19 03:04:19;;;;;;;10.95;9.27;;;14.50;99.90;;;;;;4971415;28;20054;-67
2022/08/19 03:06:46;;;;;;;9.52;7.40;;;14.60;99.90;;;;;;4965165;28;20061;-68
2022/08/19 03:09:13;;;;;;;9.30;7.93;;;14.50;99.90;;;;;;4964501;28;20470;-68
2022/08/19 03:11:39;;;;;;;7.85;7.15;;;14.30;99.90;;;;;;4968824;28;20050;-68
2022/08/19 03:14:07;;;;;;;9.05;8.07;;;14.50;99.90;;;;;;4970126;28;20108;-67
2022/08/19 03:16:35;;;;;;;10.57;8.80;;;14.40;99.90;;;;;;4972545;28;20197;-67
2022/08/19 03:19:01;;;;;;;11.27;8.20;;;14.40;99.90;;;;;;4973342;28;20050;-67
2022/08/19 03:21:32;;;;;;;9.23;8.32;;;14.40;99.90;;;;;;4971394;28;20058;-68
2022/08/19 03:24:01;;;;;;;9.95;8.45;;;14.40;99.90;;;;;;4987274;28;20062;-67
2022/08/19 03:26:26;;;;;;;9.05;7.60;;;14.40;99.90;;;;;;4969812;28;20496;-67
2022/08/19 03:28:52;;;;;;;9.18;8.27;;;14.40;99.90;;;;;;4973429;28;20050;-67
2022/08/19 03:31:23;;;;;;;9.32;7.53;;;14.30;99.90;;;;;;4945624;28;20051;-67
2022/08/19 03:33:50;;;;;;;7.80;7.03;;;14.30;99.90;;;;;;4973305;28;20070;-67
2022/08/19 03:36:22;;;;;;;9.93;7.90;;;14.30;99.90;;;;;;4961117;28;20108;-67
2022/08/19 03:38:51;;;;;;;9.88;7.43;;;14.40;99.90;;;;;;4970458;28;20145;-67
2022/08/19 03:41:28;;;;;;;9.38;8.38;;;14.20;99.90;;;;;;4967616;28;20085;-68
2022/08/19 03:43:54;;;;;;;8.20;7.30;;;14.30;99.90;;;;;;4971464;28;20150;-67
2022/08/19 03:46:23;;;;;;;7.97;7.18;;;14.20;99.90;;;;;;4950978;28;20080;-67
2022/08/19 03:48:53;;;;;;;8.93;7.38;;;14.00;99.90;;;;;;5001383;28;20055;-67
2022/08/19 03:51:30;;;;;;;10.75;8.25;;;13.90;99.90;;;;;;4972538;28;20062;-67
2022/08/19 03:53:58;;;;;;;10.13;8.38;;;14.70;99.90;;;;;;4963894;28;20047;-66
2022/08/19 03:56:25;;;;;;;8.65;7.75;;;14.10;99.90;;;;;;4971925;28;20344;-67
2022/08/19 03:58:52;;;;;;;11.10;9.50;;;14.10;99.90;;;;;;4956324;28;20050;-67
2022/08/19 04:01:20;;;;;;;10.55;8.20;;;14.40;99.90;;;;;;4968999;28;20176;-68
2022/08/19 04:03:46;;;;;;;10.10;8.73;;;14.10;99.90;;;;;;4962734;28;20051;-67
2022/08/19 04:06:20;;;;;;;9.95;8.65;;;14.10;99.90;;;;;;4956400;28;20082;-68
2022/08/19 04:08:48;;;;;;;8.65;7.80;;;14.10;99.90;;;;;;4973907;28;20058;-68
2022/08/19 04:11:16;;;;;;;9.50;8.00;;;14.10;99.90;;;;;;4971028;28;20061;-68
2022/08/19 04:13:44;;;;;;;8.98;8.07;;;14.10;99.90;;;;;;4971538;28;20054;-68
2022/08/19 04:16:10;;;;;;;9.13;8.23;;;14.10;99.90;;;;;;4976690;28;20047;-68
2022/08/19 04:18:38;;;;;;;9.48;8.18;;;14.10;99.90;;;;;;4974298;28;20546;-68
2022/08/19 04:21:04;;;;;;;9.52;7.93;;;14.20;99.90;;;;;;4974078;28;20057;-68
2022/08/19 04:23:30;;;;;;;8.75;7.57;;;14.20;99.90;;;;;;4973938;28;20043;-68
2022/08/19 04:25:56;;;;;;;10.43;7.50;;;14.00;99.90;;;;;;4971773;28;20051;-68
2022/08/19 04:28:22;;;;;;;9.02;7.90;;;14.10;99.90;;;;;;4976788;28;20050;-68
2022/08/19 04:30:53;;;;;;;8.02;7.22;;;14.00;99.90;;;;;;4991243;28;20061;-68
2022/08/19 04:33:24;;;;;;;8.05;7.25;;;14.10;99.90;;;;;;4987715;28;20467;-68
2022/08/19 04:35:52;;;;;;;9.30;8.30;;;13.90;99.90;;;;;;4971922;28;20105;-68
2022/08/19 04:38:22;;;;;;;8.43;7.57;;;13.90;99.90;;;;;;4972939;28;20336;-68
2022/08/19 04:43:37;;;;;;;7.85;6.63;;;13.90;99.90;;;;;;4977330;28;20055;-68
2022/08/19 04:46:11;;;;;;;8.82;7.93;;;14.00;99.90;;;;;;4946105;28;20511;-68
2022/08/19 04:48:37;;;;;;;8.85;8.02;;;14.10;99.90;;;;;;4953393;28;20496;-68
2022/08/19 04:51:07;;;;;;;9.82;8.05;;;14.00;99.90;;;;;;4957082;28;20051;-68
2022/08/19 04:53:35;;;;;;;9.52;7.80;;;14.00;99.90;;;;;;4973314;28;20061;-68
2022/08/19 04:56:09;;;;;;;8.18;7.35;;;14.10;99.90;;;;;;4966449;28;20062;-68
2022/08/19 04:58:36;;;;;;;10.90;8.00;;;14.10;99.90;;;;;;4975026;28;20414;-68
2022/08/19 05:01:02;;;;;;;8.93;8.02;;;14.00;99.90;;;;;;4975357;28;20135;-68
2022/08/19 05:03:31;;;;;;;8.70;7.55;;;14.00;99.90;;;;;;4967561;28;20491;-68
2022/08/19 05:05:56;;;;;;;8.82;7.93;;;14.10;99.90;;;;;;4956623;28;20074;-68
2022/08/19 05:08:22;;;;;;;10.27;8.80;;;13.80;99.90;;;;;;4975329;28;20502;-68
2022/08/19 05:10:50;;;;;;;10.43;8.63;;;14.10;99.90;;;;;;4975240;28;20051;-68
2022/08/19 05:13:17;;;;;;;9.85;8.35;;;14.10;99.90;;;;;;4975506;28;20065;-67
2022/08/19 05:15:43;;;;;;;12.52;9.63;;;14.10;99.90;;;;;;4951567;28;20106;-68
2022/08/19 05:23:40;;;;;;;9.73;8.73;;;14.20;99.90;;;;;;4955160;28;20058;-67
2022/08/19 05:26:09;;;;;;;10.10;7.80;;;14.20;99.90;;;;;;4967964;28;20157;-68
2022/08/19 05:28:35;;;;;;;9.07;7.63;;;14.20;99.90;;;;;;4966311;28;20050;-68
2022/08/19 05:31:00;;;;;;;9.98;8.93;;;14.40;99.90;;;;;;4961226;28;20058;-68
2022/08/19 05:33:27;;;;;;;9.90;8.32;;;14.30;99.90;;;;;;4963721;28;20047;-68
2022/08/19 05:35:53;;;;;;;9.68;8.45;;;14.40;99.90;;;;;;4970403;28;20402;-68
2022/08/19 05:38:19;;;;;;;10.02;7.82;;;14.50;99.90;;;;;;4970746;28;20043;-68
2022/08/19 05:40:46;;;;;;;9.15;7.55;;;14.60;99.90;;;;;;4973158;28;20039;-67
2022/08/19 05:43:15;;;;;;;8.23;7.30;;;14.70;99.90;;;;;;4969060;28;20110;-67
2022/08/19 05:45:41;;;;;;;10.27;8.73;;;14.70;99.90;;;;;;4967466;28;20085;-68
2022/08/19 05:48:10;;;;;;;10.77;8.15;;;14.90;99.90;;;;;;4958193;28;20146;-67
2022/08/19 05:50:39;;;;;;;9.75;8.75;;;14.90;99.90;;;;;;4968700;28;20105;-67
2022/08/19 05:53:05;;;;;;;10.60;9.35;;;14.90;99.90;;;;;;4967838;28;20550;-67
2022/08/19 05:55:31;;;;;;;10.48;9.35;;;15.40;99.90;;;;;;4965269;28;20165;-67
2022/08/19 05:57:57;;;;;;;11.35;10.15;;;16.20;99.90;;;;;;4974778;28;20506;-67
2022/08/19 06:00:23;;;;;;;12.88;11.57;;;17.20;99.90;;;;;;4969135;28;20043;-67
2022/08/19 06:02:48;;;;;;;13.02;11.20;;;18.10;99.90;;;;;;4970927;28;20482;-67
2022/08/19 06:05:14;;;;;;;14.77;11.30;;;18.80;99.90;;;;;;4969481;28;20043;-67
2022/08/19 06:07:40;;;;;;;14.13;11.50;;;18.90;99.90;;;;;;4975119;28;20155;-67
2022/08/19 06:10:08;;;;;;;17.67;12.02;;;19.70;99.90;;;;;;4975787;28;20046;-68
2022/08/19 06:12:34;;;;;;;14.27;11.82;;;19.40;99.90;;;;;;4973106;28;20062;-68
2022/08/19 06:15:07;;;;;;;13.27;10.75;;;18.90;99.90;;;;;;4975389;28;20050;-68
2022/08/19 06:17:34;;;;;;;12.13;10.93;;;18.50;99.90;;;;;;4975587;28;20467;-68
2022/08/19 06:20:00;;;;;;;12.68;11.38;;;17.90;99.90;;;;;;4958364;28;20058;-68
2022/08/19 06:22:26;;;;;;;12.65;10.88;;;18.00;99.90;;;;;;4957979;28;20438;-68
2022/08/19 06:24:53;;;;;;;13.98;12.20;;;17.90;99.90;;;;;;4975450;28;20050;-68
2022/08/19 06:27:19;;;;;;;15.68;13.10;;;17.80;99.90;;;;;;4973771;28;20061;-68
2022/08/19 06:29:46;;;;;;;15.70;12.93;;;17.80;99.90;;;;;;4975175;28;20078;-68
2022/08/19 06:32:16;;;;;;;14.57;13.07;;;17.80;99.90;;;;;;4975184;28;20055;-68
2022/08/19 06:34:41;;;;;;;15.93;13.88;;;17.90;99.90;;;;;;4972641;28;20051;-68
2022/08/19 06:37:07;;;;;;;15.40;13.80;;;17.90;99.90;;;;;;4950688;28;20138;-68
2022/08/19 06:39:37;;;;;;;14.35;12.90;;;18.00;99.90;;;;;;4950470;28;20450;-68
2022/08/19 06:42:06;;;;;;;14.65;13.05;;;18.10;99.90;;;;;;4956660;28;20054;-68
2022/08/19 06:44:36;;;;;;;15.68;13.55;;;18.20;99.90;;;;;;4967832;28;20055;-68
2022/08/19 06:47:07;;;;;;;15.63;13.90;;;18.30;99.90;;;;;;4957611;28;20049;-68
2022/08/19 06:49:33;;;;;;;14.60;12.27;;;;;;;;;;4969497;28;20402;-68
2022/08/19 06:52:00;;;;;;;15.13;13.32;;;;;;;;;;4970222;28;20070;-69
2022/08/19 06:54:28;;;;;;;20.17;14.45;;;;;;;;;;4953141;28;20395;-68
2022/08/19 06:56:54;;;;;;;14.20;12.75;;;;;;;;;;4967754;28;20439;-68
2022/08/19 06:59:26;;;;;;;15.27;13.15;;;19.40;99.90;;;;;;4972652;28;20484;-68
2022/08/19 07:01:54;;;;;;;15.73;14.13;;;19.20;99.90;;;;;;4972674;28;20058;-68
2022/08/19 07:04:26;;;;;;;15.05;13.52;;;19.30;99.90;;;;;;4974776;28;20126;-68
2022/08/19 07:07:02;;;;;;;16.58;14.60;;;19.40;99.90;;;;;;4974222;28;20411;-68
2022/08/19 07:09:29;;;;;;;15.25;13.50;;;19.90;99.90;;;;;;4989665;28;20097;-68
2022/08/19 07:11:55;;;;;;;15.23;13.65;;;19.80;99.90;;;;;;4974707;28;20047;-68
2022/08/19 07:14:24;;;;;;;14.88;13.35;;;20.30;99.90;;;;;;4974452;28;20038;-68
2022/08/19 07:16:54;;;;;;;14.00;12.18;;;20.00;99.90;;;;;;4957395;28;20188;-68
2022/08/19 07:19:21;;;;;;;13.90;12.50;;;20.00;99.90;;;;;;4989246;28;20050;-68
2022/08/19 07:21:50;;;;;;;12.48;11.27;;;20.30;99.90;;;;;;4974004;28;20053;-68
2022/08/19 07:24:17;;;;;;;14.70;12.35;;;20.50;99.90;;;;;;4974384;28;20439;-68
2022/08/19 07:26:43;;;;;;;13.05;11.80;;;20.40;99.90;;;;;;4974414;28;20094;-69
2022/08/19 07:29:10;;;;;;;13.32;11.98;;;21.00;99.90;;;;;;4973894;28;20043;-69
2022/08/19 07:31:36;;;;;;;16.15;12.20;;;21.20;99.90;;;;;;4973489;28;20552;-69
2022/08/19 07:34:08;;;;;;;13.73;12.32;;;20.90;99.90;;;;;;4974454;28;20055;-68
2022/08/19 07:36:37;;;;;;;12.35;11.18;;;20.70;99.90;;;;;;4940372;28;20134;-69
2022/08/19 07:39:10;;;;;;;14.73;11.70;;;20.90;99.90;;;;;;4974689;28;20395;-68
2022/08/19 07:41:36;;;;;;;12.55;11.25;;;21.40;99.90;;;;;;4973927;28;20098;-68
2022/08/19 07:44:03;;;;;;;12.90;11.60;;;21.00;99.90;;;;;;4973959;28;20155;-69
2022/08/19 07:46:33;;;;;;;12.30;10.57;;;21.20;99.90;;;;;;4972049;28;20059;-68
2022/08/19 07:49:00;;;;;;;12.85;11.65;;;21.20;99.90;;;;;;4970552;28;20082;-68
2022/08/19 07:51:27;;;;;;;12.48;11.18;;;21.40;99.90;;;;;;4972943;28;20050;-68
2022/08/19 07:53:53;;;;;;;12.55;11.00;;;21.40;99.90;;;;;;4973825;28;20078;-69
2022/08/19 07:56:20;;;;;;;12.13;11.02;;;21.60;99.90;;;;;;4973575;28;20426;-68
2022/08/19 07:58:48;;;;;;;12.15;10.85;;;21.60;99.90;;;;;;4976160;28;20067;-68
2022/08/19 08:01:17;;;;;;;12.90;10.50;;;21.70;99.90;;;;;;4973633;28;20046;-68
2022/08/19 08:09:25;;;;;;;11.55;10.32;;;21.90;99.90;;;;;;4958341;28;20050;-68
2022/08/19 08:11:52;;;;;;;12.82;10.15;;;22.20;99.90;;;;;;4973820;28;20050;-69
2022/08/19 08:14:26;;;;;;;10.82;9.82;;;22.10;99.90;;;;;;4966334;28;20066;-69
2022/08/19 08:16:52;;;;;;;11.15;10.10;;;22.70;99.90;;;;;;4955983;28;20065;-69
2022/08/19 08:19:20;;;;;;;11.20;10.10;;;22.40;99.90;;;;;;4973403;28;20057;-69
2022/08/19 08:21:47;;;;;;;11.35;10.23;;;22.50;99.90;;;;;;4972994;28;20057;-68
2022/08/19 08:24:13;;;;;;;12.90;11.35;;;22.50;99.90;;;;;;4974045;28;20133;-68
2022/08/19 08:26:40;;;;;;;13.80;11.73;;;22.80;99.90;;;;;;4956391;28;20051;-69
2022/08/19 08:29:10;;;;;;;12.88;11.57;;;22.70;99.90;;;;;;4973749;28;20130;-69
2022/08/19 08:31:35;;;;;;;12.88;11.68;;;22.80;99.90;;;;;;4955878;28;20051;-69
2022/08/19 08:34:01;;;;;;;13.27;11.88;;;23.00;99.90;;;;;;4940508;28;20065;-69
2022/08/19 08:36:27;;;;;;;13.75;12.38;;;23.10;99.90;;;;;;4971998;28;20051;-69
2022/08/19 08:38:53;;;;;;;12.55;11.35;;;23.00;99.90;;;;;;4969965;28;20075;-69
2022/08/19 08:41:27;;;;;;;15.75;12.38;;;23.10;99.90;;;;;;4954267;28;20066;-68
2022/08/19 08:43:55;;;;;;;12.70;11.40;;;23.20;99.90;;;;;;4973575;28;20050;-69
2022/08/19 08:46:26;;;;;;;13.45;11.98;;;23.10;99.90;;;;;;4973519;28;20043;-69
2022/08/19 08:49:24;;;;;;;12.27;11.05;;;23.20;99.90;;;;;;4956689;28;20063;-68
2022/08/19 08:52:15;;;;;;;13.38;11.70;;;23.30;99.90;;;;;;4975451;28;20061;-69
2022/08/19 08:54:44;;;;;;;12.98;11.50;;;23.60;99.90;;;;;;4975720;28;20082;-69
2022/08/19 08:57:19;;;;;;;13.13;11.75;;;23.60;99.90;;;;;;4976990;28;20053;-69
2022/08/19 08:59:50;;;;;;;12.90;11.68;;;23.40;99.90;;;;;;4977043;28;20055;-69
2022/08/19 09:02:16;;;;;;;12.73;11.43;;;23.70;99.90;;;;;;4977019;28;20116;-69
2022/08/19 09:04:42;;;;;;;15.13;13.63;;;23.40;99.90;;;;;;4976858;28;20286;-69
2022/08/19 09:07:26;;;;;;;12.98;11.77;;;23.60;99.90;;;;;;4959144;28;20056;-69
2022/08/19 09:10:01;;;;;;;14.60;13.20;;;23.70;99.90;;;;;;4973767;28;20055;-69
2022/08/19 09:12:45;;;;;;;13.30;12.00;;;23.70;99.90;;;;;;4959372;28;20051;-69
2022/08/19 09:15:14;;;;;;;13.73;12.30;;;23.60;99.90;;;;;;4976626;28;20051;-68
2022/08/19 09:17:39;;;;;;;13.88;12.20;;;23.70;99.90;;;;;;4976654;28;20070;-69
2022/08/19 09:20:08;;;;;;;16.20;14.68;;;24.20;99.90;;;;;;4942752;28;20050;-68
2022/08/19 09:22:35;;;;;;;14.60;13.10;;;23.80;99.90;;;;;;4971952;28;20450;-68
2022/08/19 09:25:01;;;;;;;14.18;12.88;;;23.90;99.90;;;;;;4938421;29;20067;-68
2022/08/19 09:27:28;;;;;;;14.68;13.23;;;24.00;99.90;;;;;;4952550;29;20106;-69
2022/08/19 09:29:54;;;;;;;15.32;13.50;;;24.00;99.90;;;;;;4968416;28;20055;-68
2022/08/19 09:32:20;;;;;;;15.32;13.82;;;24.20;99.90;;;;;;4958508;28;20117;-68
2022/08/19 09:34:46;;;;;;;13.50;12.18;;;24.00;99.90;;;;;;4949977;29;20897;-68
2022/08/19 09:37:12;;;;;;;14.90;13.48;;;24.30;99.90;;;;;;4953679;28;20059;-69
2022/08/19 09:39:40;;;;;;;14.20;12.88;;;24.20;99.90;;;;;;4973917;28;20169;-69
2022/08/19 09:42:11;;;;;;;16.10;14.45;;;23.90;99.90;;;;;;4953257;28;20483;-68
2022/08/19 09:44:40;;;;;;;13.85;12.48;;;24.40;99.90;;;;;;4962855;28;20078;-68
2022/08/19 09:47:07;;;;;;;14.30;12.90;;;24.00;99.90;;;;;;4966034;28;20245;-68
2022/08/19 09:49:33;;;;;;;14.48;13.07;;;24.10;99.90;;;;;;4983329;28;20461;-69
2022/08/19 09:51:59;;;;;;;12.85;11.60;;;24.30;99.90;;;;;;4957262;28;20130;-68
2022/08/19 09:54:25;;;;;;;14.63;12.98;;;24.10;99.90;;;;;;4955731;28;20058;-68
2022/08/19 09:56:54;;;;;;;12.77;11.60;;;24.40;99.90;;;;;;4967039;28;20062;-68
2022/08/19 09:59:21;;;;;;;12.02;10.93;;;24.30;99.90;;;;;;4974741;28;20058;-67
2022/08/19 10:01:46;;;;;;;13.32;12.02;;;24.50;99.90;;;;;;4969279;28;20063;-68
2022/08/19 10:04:12;;;;;;;14.27;12.40;;;24.70;99.90;;;;;;4956869;28;20384;-67
2022/08/19 10:06:39;;;;;;;11.55;10.27;;;24.50;99.90;;;;;;4953699;28;20402;-68
2022/08/19 10:09:08;;;;;;;11.55;10.50;;;24.60;99.90;;;;;;4958245;28;20451;-68
2022/08/19 10:11:34;;;;;;;11.50;10.35;;;24.90;99.90;;;;;;4972174;28;20051;-69
2022/08/19 10:14:01;;;;;;;9.65;8.55;;;25.10;99.90;;;;;;4981266;28;20051;-70
2022/08/19 10:16:26;;;;;;;11.48;10.45;;;25.20;99.90;;;;;;4970925;28;20062;-69
2022/08/19 10:18:53;;;;;;;10.70;9.70;;;25.00;99.90;;;;;;4971363;28;20050;-69
2022/08/19 10:21:22;;;;;;;11.07;9.98;;;25.00;99.90;;;;;;4957313;28;20054;-68
2022/08/19 10:23:52;;;;;;;9.75;8.82;;;25.10;99.90;;;;;;4970873;28;20067;-68
2022/08/19 10:26:21;;;;;;;9.52;8.63;;;24.90;99.90;;;;;;4939197;28;20051;-69
2022/08/19 10:28:48;;;;;;;10.10;9.10;;;25.20;99.90;;;;;;4987597;28;20142;-69
2022/08/19 10:31:20;;;;;;;9.45;8.52;;;25.20;99.90;;;;;;4973456;28;20047;-68
2022/08/19 10:33:47;;;;;;;7.35;6.75;;;25.20;99.90;;;;;;4957064;28;20058;-69
2022/08/19 10:36:18;;;;;;;10.30;9.38;;;25.40;99.90;;;;;;4956741;28;20637;-69
2022/08/19 10:38:50;;;;;;;8.05;7.30;;;25.50;99.90;;;;;;4971095;28;20510;-68
2022/08/19 10:41:24;;;;;;;6.78;6.18;;;25.50;99.90;;;;;;4941629;28;20157;-68
2022/08/19 10:43:59;;;;;;;5.82;5.18;;;25.60;99.90;;;;;;4978268;28;20125;-68
2022/08/19 10:46:27;;;;;;;6.78;6.00;;;25.60;99.90;;;;;;4972929;28;20086;-69
2022/08/19 10:48:53;;;;;;;7.28;6.68;;;25.60;99.90;;;;;;4954102;28;20055;-69
2022/08/19 10:54:05;;;;;;;10.02;6.25;;;25.60;99.90;;;;;;4971762;28;20043;-69
2022/08/19 10:56:50;;;;;;;8.77;6.93;;;25.50;99.90;;;;;;4973326;28;20050;-69
2022/08/19 10:59:19;;;;;;;6.22;5.63;;;25.80;99.90;;;;;;4954132;28;20119;-69
2022/08/19 11:01:46;;;;;;;5.82;5.20;;;26.00;99.90;;;;;;4967423;28;20506;-69
2022/08/19 11:04:13;;;;;;;4.97;4.57;;;26.00;99.90;;;;;;4972725;28;20125;-69
2022/08/19 11:06:43;;;;;;;6.28;5.68;;;26.00;99.50;;;;;;4973161;28;20154;-69
2022/08/19 11:09:09;;;;;;;6.05;5.38;;;25.80;99.90;;;;;;4989448;28;20463;-69
2022/08/19 11:11:40;;;;;;;5.93;5.45;;;25.80;99.90;;;;;;4989252;28;20506;-69
2022/08/19 11:14:13;;;;;;;8.38;7.57;;;26.10;99.90;;;;;;4974433;28;20134;-69
2022/08/19 11:16:40;;;;;;;8.00;7.00;;;26.10;99.90;;;;;;4970802;28;20070;-69
2022/08/19 11:19:10;;;;;;;8.50;7.70;;;26.20;99.90;;;;;;4946832;28;20471;-69
2022/08/19 11:21:39;;;;;;;8.35;7.40;;;26.20;99.90;;;;;;4954954;28;20055;-70
2022/08/19 11:24:12;;;;;;;10.05;9.05;;;26.00;99.90;;;;;;4971901;28;20130;-69
2022/08/19 11:26:39;;;;;;;9.50;8.60;;;26.10;99.90;;;;;;4956576;28;20051;-69
2022/08/19 11:29:11;;;;;;;10.50;9.40;;;26.10;99.90;;;;;;4952383;28;20492;-69
2022/08/19 11:31:39;;;;;;;9.32;8.48;;;26.00;99.90;;;;;;4973916;28;20341;-69
2022/08/19 11:34:07;;;;;;;8.52;6.80;;;26.40;99.90;;;;;;4987821;28;20054;-69
2022/08/19 11:36:34;;;;;;;9.35;5.70;;;26.30;99.90;;;;;;4956794;28;20059;-69
2022/08/19 11:39:00;;;;;;;6.65;6.03;;;26.30;99.90;;;;;;4948189;28;20105;-68
2022/08/19 11:41:27;;;;;;;7.72;7.03;;;26.20;99.90;;;;;;4973905;28;20152;-69
2022/08/19 11:43:54;;;;;;;7.68;6.78;;;26.70;99.90;;;;;;4973780;28;20070;-69
2022/08/19 11:46:22;;;;;;;8.48;6.20;;;26.60;99.90;;;;;;4968344;28;20073;-69
2022/08/19 11:48:50;;;;;;;8.32;7.40;;;26.60;99.90;;;;;;4943768;29;20043;-68
2022/08/19 11:51:21;;;;;;;9.23;8.45;;;26.50;99.90;;;;;;4952550;28;20038;-70
2022/08/19 11:53:48;;;;;;;8.68;7.97;;;27.00;99.20;;;;;;4953757;28;20063;-70
2022/08/19 11:56:13;;;;;;;8.45;7.70;;;26.90;99.00;;;;;;4972669;28;20046;-68
2022/08/19 11:58:41;;;;;;;12.20;8.48;;;26.90;98.90;;;;;;4957080;28;20049;-69
2022/08/19 12:01:09;;;;;;;9.20;8.35;;;27.00;99.10;;;;;;4973511;28;20102;-69
2022/08/19 12:03:35;;;;;;;9.50;8.68;;;27.30;98.20;;;;;;4955833;28;20086;-69
2022/08/19 12:06:12;;;;;;;10.25;9.35;;;27.10;97.80;;;;;;4972281;28;20074;-68
2022/08/19 12:08:38;;;;;;;10.57;9.48;;;27.10;98.10;;;;;;4952820;28;20078;-69
2022/08/19 12:11:04;;;;;;;7.80;7.00;;;27.00;97.20;;;;;;4966036;28;20051;-69
2022/08/19 12:13:30;;;;;;;7.20;6.50;;;26.90;96.40;;;;;;4948899;28;20069;-69
2022/08/19 12:15:58;;;;;;;8.15;7.38;;;26.50;94.10;;;;;;4955201;28;20090;-69
2022/08/19 12:18:24;;;;;;;7.30;6.63;;;26.60;95.00;;;;;;4988628;28;20055;-69
2022/08/19 12:20:52;;;;;;;6.65;6.05;;;26.90;97.40;;;;;;4972924;28;20138;-70
2022/08/19 12:23:18;;;;;;;9.25;7.63;;;27.10;95.60;;;;;;4983288;28;20110;-70
2022/08/19 12:25:51;;;;;;;7.18;6.47;;;27.00;95.20;;;;;;4957838;28;20118;-69
2022/08/19 12:28:22;;;;;;;7.00;6.40;;;27.10;93.50;;;;;;4960033;28;20058;-69
2022/08/19 12:30:49;;;;;;;9.70;7.73;;;27.20;95.70;;;;;;4977904;28;20065;-69
2022/08/19 12:33:15;;;;;;;7.30;6.53;;;27.20;95.20;;;;;;4993659;28;20050;-69
2022/08/19 12:35:43;;;;;;;5.75;5.20;;;27.00;94.70;;;;;;4999230;28;20058;-68
2022/08/19 12:38:10;;;;;;;7.72;6.38;;;27.00;92.10;;;;;;4971877;28;20047;-68
2022/08/19 12:40:35;;;;;;;5.72;5.15;;;26.80;91.40;;;;;;4990835;28;20051;-68
2022/08/19 12:43:02;;;;;;;4.30;3.90;;;26.90;90.70;;;;;;4970800;28;20508;-69
2022/08/19 12:45:28;;;;;;;3.95;3.55;;;26.90;90.70;;;;;;4968987;28;20464;-69
2022/08/19 12:47:54;;;;;;;5.05;4.28;;;27.10;88.00;;;;;;4958402;28;20051;-69
2022/08/19 12:50:21;;;;;;;3.20;2.42;;;27.10;84.30;;;;;;4959389;28;20062;-69
2022/08/19 12:52:47;;;;;;;2.80;2.60;;;27.20;74.50;;;;;;4975328;28;20051;-68
2022/08/19 12:55:13;;;;;;;3.63;3.33;;;27.20;69.70;;;;;;4959434;28;20129;-69
2022/08/19 12:57:39;;;;;;;4.80;4.30;;;27.30;70.60;;;;;;4974097;28;20178;-68
2022/08/19 13:00:13;;;;;;;5.47;5.05;;;27.20;71.70;;;;;;4977185;28;20047;-68
2022/08/19 13:02:40;;;;;;;5.40;5.00;;;27.20;74.30;;;;;;4976861;28;20054;-68